sensor_id;sensor_type;location;lat;lon;timestamp;pressure;altitude;pressure_sealevel;temperature;humidity
73941;BME280;62294;48.554;10.202;2022-12-18T00:01:32;97187.47;;;-8.93;85.67
73941;BME280;62294;48.554;10.202;2022-12-18T00:04:02;97188.63;;;-8.81;85.36
73941;BME280;62294;48.554;10.202;2022-12-18T00:06:32;97185.38;;;-8.68;85.54
73941;BME280;62294;48.554;10.202;2022-12-18T00:08:59;97195.25;;;-8.58;84.94
73941;BME280;62294;48.554;10.202;2022-12-18T00:11:29;97183.88;;;-8.72;84.89
73941;BME280;62294;48.554;10.202;2022-12-18T00:13:57;97171.97;;;-8.57;84.86
73941;BME280;62294;48.554;10.202;2022-12-18T00:16:25;97187.47;;;-8.76;85.26
73941;BME280;62294;48.554;10.202;2022-12-18T00:18:54;97178.94;;;-8.59;85.72
73941;BME280;62294;48.554;10.202;2022-12-18T00:21:22;97184.75;;;-8.55;85.74
73941;BME280;62294;48.554;10.202;2022-12-18T00:23:51;97182.28;;;-8.57;84.74
73941;BME280;62294;48.554;10.202;2022-12-18T00:26:29;97192.06;;;-8.63;85.13
73941;BME280;62294;48.554;10.202;2022-12-18T00:29:06;97189.31;;;-8.78;86.24
73941;BME280;62294;48.554;10.202;2022-12-18T00:31:33;97192.50;;;-8.73;86.54
73941;BME280;62294;48.554;10.202;2022-12-18T00:34:01;97183.97;;;-8.56;86.03
73941;BME280;62294;48.554;10.202;2022-12-18T00:36:30;97192.34;;;-8.52;86.25
73941;BME280;62294;48.554;10.202;2022-12-18T00:38:58;97192.06;;;-8.63;86.16
73941;BME280;62294;48.554;10.202;2022-12-18T00:41:26;97186.44;;;-8.72;87.50
73941;BME280;62294;48.554;10.202;2022-12-18T00:44:13;97189.63;;;-8.67;87.17
73941;BME280;62294;48.554;10.202;2022-12-18T00:46:41;97196.31;;;-8.62;87.85
73941;BME280;62294;48.554;10.202;2022-12-18T00:49:09;97211.59;;;-8.77;88.63
73941;BME280;62294;48.554;10.202;2022-12-18T00:51:36;97212.81;;;-8.67;87.66
73941;BME280;62294;48.554;10.202;2022-12-18T00:54:02;97206.75;;;-8.48;87.21
73941;BME280;62294;48.554;10.202;2022-12-18T00:56:29;97208.66;;;-8.52;87.58
73941;BME280;62294;48.554;10.202;2022-12-18T00:58:56;97215.41;;;-8.49;87.66
73941;BME280;62294;48.554;10.202;2022-12-18T01:01:22;97220.72;;;-8.52;88.32
73941;BME280;62294;48.554;10.202;2022-12-18T01:03:49;97209.66;;;-8.37;88.37
73941;BME280;62294;48.554;10.202;2022-12-18T01:06:16;97202.28;;;-8.28;87.41
73941;BME280;62294;48.554;10.202;2022-12-18T01:08:43;97203.28;;;-8.47;88.19
73941;BME280;62294;48.554;10.202;2022-12-18T01:11:12;97224.56;;;-8.44;87.52
73941;BME280;62294;48.554;10.202;2022-12-18T01:13:40;97219.78;;;-8.69;89.27
73941;BME280;62294;48.554;10.202;2022-12-18T01:16:07;97229.31;;;-8.71;89.01
73941;BME280;62294;48.554;10.202;2022-12-18T01:18:35;97230.28;;;-8.37;88.33
73941;BME280;62294;48.554;10.202;2022-12-18T01:21:07;97229.81;;;-8.45;88.45
73941;BME280;62294;48.554;10.202;2022-12-18T01:23:33;97228.16;;;-8.46;88.45
73941;BME280;62294;48.554;10.202;2022-12-18T01:26:08;97213.56;;;-8.30;88.10
73941;BME280;62294;48.554;10.202;2022-12-18T01:28:35;97223.59;;;-8.41;88.49
73941;BME280;62294;48.554;10.202;2022-12-18T01:33:41;97218.69;;;-8.29;87.57
73941;BME280;62294;48.554;10.202;2022-12-18T01:36:08;97219.50;;;-8.28;87.85
73941;BME280;62294;48.554;10.202;2022-12-18T01:38:35;97212.41;;;-8.25;87.39
73941;BME280;62294;48.554;10.202;2022-12-18T01:41:02;97233.16;;;-8.26;87.36
73941;BME280;62294;48.554;10.202;2022-12-18T01:43:57;97239.78;;;-8.22;88.09
73941;BME280;62294;48.554;10.202;2022-12-18T01:46:25;97240.56;;;-8.20;87.62
73941;BME280;62294;48.554;10.202;2022-12-18T01:49:01;97236.50;;;-7.92;87.56
73941;BME280;62294;48.554;10.202;2022-12-18T01:51:29;97224.94;;;-8.17;87.08
73941;BME280;62294;48.554;10.202;2022-12-18T01:53:57;97226.06;;;-8.23;87.98
73941;BME280;62294;48.554;10.202;2022-12-18T01:56:24;97226.47;;;-8.30;87.69
73941;BME280;62294;48.554;10.202;2022-12-18T01:58:58;97231.41;;;-8.26;87.51
73941;BME280;62294;48.554;10.202;2022-12-18T02:01:28;97240.31;;;-8.16;87.97
73941;BME280;62294;48.554;10.202;2022-12-18T02:03:56;97236.53;;;-8.09;87.74
73941;BME280;62294;48.554;10.202;2022-12-18T02:06:42;97233.09;;;-8.09;87.72
73941;BME280;62294;48.554;10.202;2022-12-18T02:09:16;97228.66;;;-8.06;87.35
73941;BME280;62294;48.554;10.202;2022-12-18T02:12:16;97234.25;;;-7.98;87.67
73941;BME280;62294;48.554;10.202;2022-12-18T02:14:53;97232.19;;;-7.91;86.90
73941;BME280;62294;48.554;10.202;2022-12-18T02:17:23;97220.78;;;-7.87;86.99
73941;BME280;62294;48.554;10.202;2022-12-18T02:20:48;97222.78;;;-7.92;86.89
73941;BME280;62294;48.554;10.202;2022-12-18T02:23:12;97219.31;;;-8.25;87.43
73941;BME280;62294;48.554;10.202;2022-12-18T02:26:04;97222.50;;;-8.20;87.94
73941;BME280;62294;48.554;10.202;2022-12-18T02:28:39;97217.94;;;-8.15;87.84
73941;BME280;62294;48.554;10.202;2022-12-18T02:31:11;97225.84;;;-8.18;86.56
73941;BME280;62294;48.554;10.202;2022-12-18T02:33:39;97216.59;;;-8.39;87.57
73941;BME280;62294;48.554;10.202;2022-12-18T02:36:08;97210.31;;;-8.34;87.51
73941;BME280;62294;48.554;10.202;2022-12-18T02:38:36;97215.25;;;-8.29;87.22
73941;BME280;62294;48.554;10.202;2022-12-18T02:41:03;97220.91;;;-8.06;86.66
73941;BME280;62294;48.554;10.202;2022-12-18T02:43:31;97225.09;;;-8.03;87.05
73941;BME280;62294;48.554;10.202;2022-12-18T02:45:59;97227.44;;;-7.99;86.46
73941;BME280;62294;48.554;10.202;2022-12-18T02:48:33;97232.78;;;-7.86;86.03
73941;BME280;62294;48.554;10.202;2022-12-18T02:51:10;97232.97;;;-8.23;85.68
73941;BME280;62294;48.554;10.202;2022-12-18T02:53:53;97234.91;;;-8.27;86.50
73941;BME280;62294;48.554;10.202;2022-12-18T02:56:27;97229.47;;;-8.22;86.78
73941;BME280;62294;48.554;10.202;2022-12-18T02:59:04;97230.75;;;-8.46;87.24
73941;BME280;62294;48.554;10.202;2022-12-18T03:01:43;97242.22;;;-8.71;87.97
73941;BME280;62294;48.554;10.202;2022-12-18T03:04:14;97237.00;;;-8.52;88.01
73941;BME280;62294;48.554;10.202;2022-12-18T03:06:46;97228.16;;;-8.46;87.18
73941;BME280;62294;48.554;10.202;2022-12-18T03:09:19;97232.38;;;-8.62;87.73
73941;BME280;62294;48.554;10.202;2022-12-18T03:11:54;97220.56;;;-8.49;87.90
73941;BME280;62294;48.554;10.202;2022-12-18T03:14:41;97235.13;;;-8.84;88.28
73941;BME280;62294;48.554;10.202;2022-12-18T03:17:13;97242.13;;;-8.86;89.18
73941;BME280;62294;48.554;10.202;2022-12-18T03:19:42;97243.28;;;-8.57;88.18
73941;BME280;62294;48.554;10.202;2022-12-18T03:22:10;97243.28;;;-8.75;88.00
73941;BME280;62294;48.554;10.202;2022-12-18T03:24:37;97245.94;;;-8.59;88.45
73941;BME280;62294;48.554;10.202;2022-12-18T03:27:09;97241.91;;;-8.64;88.50
73941;BME280;62294;48.554;10.202;2022-12-18T03:29:40;97248.59;;;-8.60;87.74
73941;BME280;62294;48.554;10.202;2022-12-18T03:32:15;97254.97;;;-8.68;88.78
73941;BME280;62294;48.554;10.202;2022-12-18T03:34:46;97254.03;;;-8.67;88.60
73941;BME280;62294;48.554;10.202;2022-12-18T03:37:14;97245.84;;;-8.75;88.36
73941;BME280;62294;48.554;10.202;2022-12-18T03:39:40;97246.38;;;-8.68;88.57
73941;BME280;62294;48.554;10.202;2022-12-18T03:42:23;97243.75;;;-8.49;88.27
73941;BME280;62294;48.554;10.202;2022-12-18T03:47:39;97235.28;;;-8.34;88.84
73941;BME280;62294;48.554;10.202;2022-12-18T03:50:21;97238.00;;;-8.54;88.34
73941;BME280;62294;48.554;10.202;2022-12-18T03:52:53;97233.47;;;-8.49;88.57
73941;BME280;62294;48.554;10.202;2022-12-18T03:55:24;97231.00;;;-8.18;88.07
73941;BME280;62294;48.554;10.202;2022-12-18T03:57:53;97230.28;;;-8.37;88.20
73941;BME280;62294;48.554;10.202;2022-12-18T04:00:20;97231.06;;;-8.20;87.79
73941;BME280;62294;48.554;10.202;2022-12-18T04:02:51;97233.66;;;-8.20;87.48
73941;BME280;62294;48.554;10.202;2022-12-18T04:05:19;97232.22;;;-8.08;87.83
73941;BME280;62294;48.554;10.202;2022-12-18T04:07:47;97233.94;;;-8.09;87.09
73941;BME280;62294;48.554;10.202;2022-12-18T04:10:16;97228.69;;;-8.07;87.06
73941;BME280;62294;48.554;10.202;2022-12-18T04:12:43;97235.53;;;-8.06;87.49
73941;BME280;62294;48.554;10.202;2022-12-18T04:15:11;97259.88;;;-7.95;87.34
73941;BME280;62294;48.554;10.202;2022-12-18T04:17:38;97253.78;;;-7.76;87.54
73941;BME280;62294;48.554;10.202;2022-12-18T04:20:08;97249.47;;;-7.76;87.68
73941;BME280;62294;48.554;10.202;2022-12-18T04:22:34;97254.25;;;-7.85;86.88
73941;BME280;62294;48.554;10.202;2022-12-18T04:25:01;97254.13;;;-8.00;86.79
73941;BME280;62294;48.554;10.202;2022-12-18T04:27:28;97245.88;;;-8.06;87.32
73941;BME280;62294;48.554;10.202;2022-12-18T04:29:55;97251.44;;;-7.98;87.52
73941;BME280;62294;48.554;10.202;2022-12-18T04:32:21;97252.75;;;-7.89;87.61
73941;BME280;62294;48.554;10.202;2022-12-18T04:34:48;97250.88;;;-8.03;87.67
73941;BME280;62294;48.554;10.202;2022-12-18T04:37:14;97252.06;;;-7.76;88.15
73941;BME280;62294;48.554;10.202;2022-12-18T04:39:41;97256.53;;;-7.47;87.67
73941;BME280;62294;48.554;10.202;2022-12-18T04:42:07;97250.03;;;-7.54;87.30
73941;BME280;62294;48.554;10.202;2022-12-18T04:44:34;97259.13;;;-7.47;87.40
73941;BME280;62294;48.554;10.202;2022-12-18T04:47:00;97263.69;;;-7.52;87.09
73941;BME280;62294;48.554;10.202;2022-12-18T04:49:27;97270.59;;;-7.52;87.19
73941;BME280;62294;48.554;10.202;2022-12-18T04:51:54;97270.16;;;-7.60;87.50
73941;BME280;62294;48.554;10.202;2022-12-18T04:54:20;97265.00;;;-7.77;87.56
73941;BME280;62294;48.554;10.202;2022-12-18T04:56:47;97270.59;;;-7.85;88.32
73941;BME280;62294;48.554;10.202;2022-12-18T04:59:14;97264.56;;;-7.36;87.61
73941;BME280;62294;48.554;10.202;2022-12-18T05:01:40;97264.88;;;-7.42;86.69
73941;BME280;62294;48.554;10.202;2022-12-18T05:04:07;97266.88;;;-7.31;87.29
73941;BME280;62294;48.554;10.202;2022-12-18T05:06:33;97268.56;;;-7.30;86.51
73941;BME280;62294;48.554;10.202;2022-12-18T05:09:00;97274.03;;;-7.36;87.02
73941;BME280;62294;48.554;10.202;2022-12-18T05:11:27;97270.09;;;-7.10;86.71
73941;BME280;62294;48.554;10.202;2022-12-18T05:13:56;97271.47;;;-7.21;86.23
73941;BME280;62294;48.554;10.202;2022-12-18T05:16:22;97265.41;;;-7.19;86.44
73941;BME280;62294;48.554;10.202;2022-12-18T05:18:49;97266.56;;;-7.09;86.92
73941;BME280;62294;48.554;10.202;2022-12-18T05:21:16;97269.25;;;-7.44;86.63
73941;BME280;62294;48.554;10.202;2022-12-18T05:23:42;97273.75;;;-7.30;87.14
73941;BME280;62294;48.554;10.202;2022-12-18T05:26:15;97279.06;;;-7.17;86.96
73941;BME280;62294;48.554;10.202;2022-12-18T05:28:43;97282.66;;;-7.04;87.27
73941;BME280;62294;48.554;10.202;2022-12-18T05:31:10;97292.50;;;-7.11;86.58
73941;BME280;62294;48.554;10.202;2022-12-18T05:33:36;97282.91;;;-7.25;87.35
73941;BME280;62294;48.554;10.202;2022-12-18T05:36:06;97279.22;;;-7.21;87.40
73941;BME280;62294;48.554;10.202;2022-12-18T05:38:35;97291.56;;;-7.26;87.29
73941;BME280;62294;48.554;10.202;2022-12-18T05:41:02;97290.25;;;-7.17;87.75
73941;BME280;62294;48.554;10.202;2022-12-18T05:43:29;97284.09;;;-7.14;87.19
73941;BME280;62294;48.554;10.202;2022-12-18T05:45:56;97289.75;;;-7.24;87.97
73941;BME280;62294;48.554;10.202;2022-12-18T05:48:23;97291.34;;;-7.21;88.30
73941;BME280;62294;48.554;10.202;2022-12-18T05:50:50;97290.50;;;-7.06;88.29
73941;BME280;62294;48.554;10.202;2022-12-18T05:53:18;97288.44;;;-6.99;87.30
73941;BME280;62294;48.554;10.202;2022-12-18T05:55:45;97295.44;;;-7.01;87.67
73941;BME280;62294;48.554;10.202;2022-12-18T05:58:13;97281.75;;;-7.03;87.73
73941;BME280;62294;48.554;10.202;2022-12-18T06:00:43;97281.75;;;-7.03;87.64
73941;BME280;62294;48.554;10.202;2022-12-18T06:03:11;97284.25;;;-6.86;87.36
73941;BME280;62294;48.554;10.202;2022-12-18T06:05:40;97275.09;;;-6.92;87.07
73941;BME280;62294;48.554;10.202;2022-12-18T06:08:07;97275.25;;;-6.79;87.44
73941;BME280;62294;48.554;10.202;2022-12-18T06:10:34;97287.19;;;-6.92;86.95
73941;BME280;62294;48.554;10.202;2022-12-18T06:13:00;97290.75;;;-6.95;87.67
73941;BME280;62294;48.554;10.202;2022-12-18T06:15:27;97296.41;;;-7.19;87.87
73941;BME280;62294;48.554;10.202;2022-12-18T06:17:54;97300.44;;;-6.98;88.24
73941;BME280;62294;48.554;10.202;2022-12-18T06:20:20;97300.75;;;-7.04;88.54
73941;BME280;62294;48.554;10.202;2022-12-18T06:22:47;97289.84;;;-6.94;88.10
73941;BME280;62294;48.554;10.202;2022-12-18T06:25:15;97297.75;;;-6.97;88.04
73941;BME280;62294;48.554;10.202;2022-12-18T06:27:42;97302.59;;;-6.75;87.46
73941;BME280;62294;48.554;10.202;2022-12-18T06:30:09;97301.13;;;-6.48;87.44
73941;BME280;62294;48.554;10.202;2022-12-18T06:32:36;97306.78;;;-6.73;86.93
73941;BME280;62294;48.554;10.202;2022-12-18T06:35:02;97310.53;;;-6.78;87.62
73941;BME280;62294;48.554;10.202;2022-12-18T06:37:30;97307.94;;;-6.78;87.75
73941;BME280;62294;48.554;10.202;2022-12-18T06:39:57;97309.25;;;-7.02;87.44
73941;BME280;62294;48.554;10.202;2022-12-18T06:42:24;97309.19;;;-6.85;87.38
73941;BME280;62294;48.554;10.202;2022-12-18T06:44:51;97312.44;;;-6.66;87.50
73941;BME280;62294;48.554;10.202;2022-12-18T06:47:18;97311.13;;;-6.73;87.69
73941;BME280;62294;48.554;10.202;2022-12-18T06:49:44;97309.94;;;-6.83;87.64
73941;BME280;62294;48.554;10.202;2022-12-18T06:52:11;97317.31;;;-6.76;87.79
73941;BME280;62294;48.554;10.202;2022-12-18T06:54:38;97309.94;;;-6.68;87.19
73941;BME280;62294;48.554;10.202;2022-12-18T06:57:04;97312.44;;;-6.66;87.34
73941;BME280;62294;48.554;10.202;2022-12-18T06:59:31;97320.63;;;-6.58;87.52
73941;BME280;62294;48.554;10.202;2022-12-18T07:01:57;97313.97;;;-6.78;87.90
73941;BME280;62294;48.554;10.202;2022-12-18T07:04:31;97324.91;;;-6.57;87.71
73941;BME280;62294;48.554;10.202;2022-12-18T07:06:57;97326.69;;;-6.59;86.94
73941;BME280;62294;48.554;10.202;2022-12-18T07:09:24;97328.97;;;-6.69;87.05
73941;BME280;62294;48.554;10.202;2022-12-18T07:11:52;97324.97;;;-6.59;87.66
73941;BME280;62294;48.554;10.202;2022-12-18T07:14:18;97316.28;;;-6.58;87.37
73941;BME280;62294;48.554;10.202;2022-12-18T07:16:45;97315.44;;;-6.58;87.55
73941;BME280;62294;48.554;10.202;2022-12-18T07:19:11;97331.56;;;-6.69;87.53
73941;BME280;62294;48.554;10.202;2022-12-18T07:21:38;97332.72;;;-6.74;87.78
73941;BME280;62294;48.554;10.202;2022-12-18T07:24:05;97342.91;;;-6.56;87.76
73941;BME280;62294;48.554;10.202;2022-12-18T07:26:32;97340.47;;;-6.43;87.24
73941;BME280;62294;48.554;10.202;2022-12-18T07:28:58;97358.00;;;-6.48;87.49
73941;BME280;62294;48.554;10.202;2022-12-18T07:31:25;97350.50;;;-6.53;87.21
73941;BME280;62294;48.554;10.202;2022-12-18T07:33:52;97366.50;;;-6.46;87.93
73941;BME280;62294;48.554;10.202;2022-12-18T07:36:19;97369.50;;;-6.38;87.28
73941;BME280;62294;48.554;10.202;2022-12-18T07:38:49;97364.97;;;-6.50;87.36
73941;BME280;62294;48.554;10.202;2022-12-18T07:41:16;97371.34;;;-6.56;87.69
73941;BME280;62294;48.554;10.202;2022-12-18T07:43:43;97380.50;;;-6.50;88.11
73941;BME280;62294;48.554;10.202;2022-12-18T07:46:10;97375.03;;;-6.60;88.83
73941;BME280;62294;48.554;10.202;2022-12-18T07:48:39;97380.69;;;-6.53;88.19
73941;BME280;62294;48.554;10.202;2022-12-18T07:51:07;97382.44;;;-6.38;88.36
73941;BME280;62294;48.554;10.202;2022-12-18T07:53:35;97388.53;;;-6.39;88.21
73941;BME280;62294;48.554;10.202;2022-12-18T07:56:05;97381.34;;;-6.34;87.79
73941;BME280;62294;48.554;10.202;2022-12-18T07:58:53;97385.66;;;-6.66;88.15
73941;BME280;62294;48.554;10.202;2022-12-18T08:01:19;97385.28;;;-6.58;89.15
73941;BME280;62294;48.554;10.202;2022-12-18T08:03:46;97386.91;;;-6.73;89.84
73941;BME280;62294;48.554;10.202;2022-12-18T08:06:13;97385.75;;;-6.20;89.12
73941;BME280;62294;48.554;10.202;2022-12-18T08:08:39;97378.69;;;-6.48;88.82
73941;BME280;62294;48.554;10.202;2022-12-18T08:11:07;97389.03;;;-6.48;88.57
73941;BME280;62294;48.554;10.202;2022-12-18T08:13:34;97393.63;;;-6.53;89.02
73941;BME280;62294;48.554;10.202;2022-12-18T08:16:06;97380.19;;;-6.28;88.84
73941;BME280;62294;48.554;10.202;2022-12-18T08:18:35;97386.59;;;-6.20;87.83
73941;BME280;62294;48.554;10.202;2022-12-18T08:21:29;97386.69;;;-6.06;88.33
73941;BME280;62294;48.554;10.202;2022-12-18T08:23:59;97379.31;;;-6.13;87.90
73941;BME280;62294;48.554;10.202;2022-12-18T08:26:28;97376.00;;;-6.15;87.64
73941;BME280;62294;48.554;10.202;2022-12-18T08:28:55;97366.41;;;-6.29;88.06
73941;BME280;62294;48.554;10.202;2022-12-18T08:31:25;97376.84;;;-6.30;88.75
73941;BME280;62294;48.554;10.202;2022-12-18T08:33:53;97374.00;;;-6.26;88.48
73941;BME280;62294;48.554;10.202;2022-12-18T08:36:21;97374.63;;;-6.07;87.68
73941;BME280;62294;48.554;10.202;2022-12-18T08:38:49;97368.31;;;-6.01;87.86
73941;BME280;62294;48.554;10.202;2022-12-18T08:41:17;97363.88;;;-5.99;87.90
73941;BME280;62294;48.554;10.202;2022-12-18T08:43:44;97363.53;;;-5.79;87.79
73941;BME280;62294;48.554;10.202;2022-12-18T08:46:36;97362.84;;;-5.67;87.43
73941;BME280;62294;48.554;10.202;2022-12-18T08:49:03;97371.06;;;-5.31;86.45
73941;BME280;62294;48.554;10.202;2022-12-18T08:51:30;97375.38;;;-5.59;85.59
73941;BME280;62294;48.554;10.202;2022-12-18T08:53:57;97367.72;;;-5.77;86.63
73941;BME280;62294;48.554;10.202;2022-12-18T08:56:23;97369.69;;;-5.22;86.73
73941;BME280;62294;48.554;10.202;2022-12-18T08:58:52;97369.63;;;-5.21;85.80
73941;BME280;62294;48.554;10.202;2022-12-18T09:01:19;97366.84;;;-5.61;84.96
73941;BME280;62294;48.554;10.202;2022-12-18T09:03:46;97371.41;;;-5.81;85.81
73941;BME280;62294;48.554;10.202;2022-12-18T09:06:15;97380.91;;;-5.81;87.68
73941;BME280;62294;48.554;10.202;2022-12-18T09:08:43;97380.88;;;-5.65;87.06
73941;BME280;62294;48.554;10.202;2022-12-18T09:11:19;97383.56;;;-5.23;86.23
73941;BME280;62294;48.554;10.202;2022-12-18T09:13:47;97381.63;;;-5.63;85.94
73941;BME280;62294;48.554;10.202;2022-12-18T09:16:14;97369.44;;;-5.47;87.34
73941;BME280;62294;48.554;10.202;2022-12-18T09:18:41;97375.75;;;-5.51;86.50
73941;BME280;62294;48.554;10.202;2022-12-18T09:21:13;97365.25;;;-5.06;87.12
73941;BME280;62294;48.554;10.202;2022-12-18T09:23:40;97372.66;;;-5.28;85.06
73941;BME280;62294;48.554;10.202;2022-12-18T09:26:07;97373.75;;;-5.32;85.01
73941;BME280;62294;48.554;10.202;2022-12-18T09:28:34;97364.91;;;-5.00;85.51
73941;BME280;62294;48.554;10.202;2022-12-18T09:31:05;97373.56;;;-5.29;84.55
73941;BME280;62294;48.554;10.202;2022-12-18T09:33:36;97375.16;;;-5.13;85.03
73941;BME280;62294;48.554;10.202;2022-12-18T09:36:06;97370.34;;;-5.19;84.80
73941;BME280;62294;48.554;10.202;2022-12-18T09:38:34;97376.72;;;-5.24;84.18
73941;BME280;62294;48.554;10.202;2022-12-18T09:43:51;97358.84;;;-5.29;85.12
73941;BME280;62294;48.554;10.202;2022-12-18T09:46:33;97352.09;;;-5.31;85.17
73941;BME280;62294;48.554;10.202;2022-12-18T09:49:03;97359.88;;;-5.17;84.64
73941;BME280;62294;48.554;10.202;2022-12-18T09:54:07;97362.66;;;-5.34;85.79
73941;BME280;62294;48.554;10.202;2022-12-18T09:56:41;97363.59;;;-5.21;84.48
73941;BME280;62294;48.554;10.202;2022-12-18T10:01:45;97360.66;;;-5.45;86.36
73941;BME280;62294;48.554;10.202;2022-12-18T10:04:12;97354.88;;;-5.78;88.12
73941;BME280;62294;48.554;10.202;2022-12-18T10:12:22;97362.56;;;-5.33;86.97
73941;BME280;62294;48.554;10.202;2022-12-18T10:15:34;97373.75;;;-5.32;86.59
73941;BME280;62294;48.554;10.202;2022-12-18T10:17:56;97363.84;;;-5.69;86.85
73941;BME280;62294;48.554;10.202;2022-12-18T10:20:42;97359.03;;;-5.46;88.44
73941;BME280;62294;48.554;10.202;2022-12-18T10:23:21;97355.41;;;-5.29;87.13
73941;BME280;62294;48.554;10.202;2022-12-18T10:25:59;97348.84;;;-5.35;85.96
73941;BME280;62294;48.554;10.202;2022-12-18T10:28:30;97338.38;;;-5.47;87.49
73941;BME280;62294;48.554;10.202;2022-12-18T10:30:58;97349.97;;;-5.39;87.89
73941;BME280;62294;48.554;10.202;2022-12-18T10:33:28;97346.94;;;-5.03;86.42
73941;BME280;62294;48.554;10.202;2022-12-18T10:35:55;97345.81;;;-4.99;85.27
73941;BME280;62294;48.554;10.202;2022-12-18T10:38:30;97350.31;;;-4.46;85.60
73941;BME280;62294;48.554;10.202;2022-12-18T10:43:39;97348.59;;;-4.74;82.88
73941;BME280;62294;48.554;10.202;2022-12-18T10:51:35;97347.38;;;-5.11;85.85
73941;BME280;62294;48.554;10.202;2022-12-18T10:54:03;97338.22;;;-4.74;85.29
73941;BME280;62294;48.554;10.202;2022-12-18T10:56:34;97345.38;;;-4.37;83.88
73941;BME280;62294;48.554;10.202;2022-12-18T10:59:04;97360.59;;;-4.45;84.13
73941;BME280;62294;48.554;10.202;2022-12-18T11:04:26;97356.91;;;-5.39;88.04
73941;BME280;62294;48.554;10.202;2022-12-18T11:07:02;97357.31;;;-6.05;90.11
73941;BME280;62294;48.554;10.202;2022-12-18T11:09:37;97366.22;;;-5.81;90.47
73941;BME280;62294;48.554;10.202;2022-12-18T11:12:15;97359.09;;;-5.47;88.87
73941;BME280;62294;48.554;10.202;2022-12-18T11:14:46;97352.44;;;-5.51;89.08
73941;BME280;62294;48.554;10.202;2022-12-18T11:17:34;97364.69;;;-5.25;87.91
73941;BME280;62294;48.554;10.202;2022-12-18T11:20:05;97361.28;;;-5.12;87.65
73941;BME280;62294;48.554;10.202;2022-12-18T11:22:36;97361.84;;;-4.92;87.39
73941;BME280;62294;48.554;10.202;2022-12-18T11:25:06;97355.88;;;-5.37;88.29
73941;BME280;62294;48.554;10.202;2022-12-18T11:28:04;97362.66;;;-4.92;87.93
73941;BME280;62294;48.554;10.202;2022-12-18T11:33:06;97341.47;;;-4.98;85.61
73941;BME280;62294;48.554;10.202;2022-12-18T11:35:53;97348.19;;;-5.38;87.16
73941;BME280;62294;48.554;10.202;2022-12-18T11:38:22;97352.03;;;-5.02;87.74
73941;BME280;62294;48.554;10.202;2022-12-18T11:41:03;97350.34;;;-4.74;85.78
73941;BME280;62294;48.554;10.202;2022-12-18T11:43:38;97339.22;;;-4.21;86.09
73941;BME280;62294;48.554;10.202;2022-12-18T11:46:15;97342.63;;;-4.48;84.54
73941;BME280;62294;48.554;10.202;2022-12-18T11:49:03;97334.69;;;-4.59;84.02
73941;BME280;62294;48.554;10.202;2022-12-18T11:51:35;97327.06;;;-4.48;83.99
73941;BME280;62294;48.554;10.202;2022-12-18T11:54:12;97327.09;;;-4.62;84.99
73941;BME280;62294;48.554;10.202;2022-12-18T11:56:47;97324.41;;;-4.74;85.29
73941;BME280;62294;48.554;10.202;2022-12-18T12:04:35;97321.84;;;-5.75;89.23
73941;BME280;62294;48.554;10.202;2022-12-18T12:07:36;97311.31;;;-5.71;89.79
73941;BME280;62294;48.554;10.202;2022-12-18T12:10:30;97314.91;;;-5.74;91.39
73941;BME280;62294;48.554;10.202;2022-12-18T12:16:24;97311.69;;;-5.92;90.97
73941;BME280;62294;48.554;10.202;2022-12-18T12:21:53;97296.72;;;-5.87;91.85
73941;BME280;62294;48.554;10.202;2022-12-18T12:30:35;97292.50;;;-5.31;89.39
73941;BME280;62294;48.554;10.202;2022-12-18T12:33:10;97286.22;;;-5.41;88.13
73941;BME280;62294;48.554;10.202;2022-12-18T12:35:52;97292.28;;;-4.86;87.91
73941;BME280;62294;48.554;10.202;2022-12-18T12:38:30;97275.22;;;-4.62;85.62
73941;BME280;62294;48.554;10.202;2022-12-18T12:41:04;97284.16;;;-4.94;85.41
73941;BME280;62294;48.554;10.202;2022-12-18T12:43:44;97277.13;;;-5.06;86.71
73941;BME280;62294;48.554;10.202;2022-12-18T12:46:18;97266.16;;;-4.83;87.01
73941;BME280;62294;48.554;10.202;2022-12-18T12:48:58;97275.47;;;-4.25;85.41
73941;BME280;62294;48.554;10.202;2022-12-18T12:51:29;97275.59;;;-4.68;85.76
73941;BME280;62294;48.554;10.202;2022-12-18T12:54:00;97273.91;;;-4.55;86.68
73941;BME280;62294;48.554;10.202;2022-12-18T12:56:51;97284.16;;;-4.80;86.27
73941;BME280;62294;48.554;10.202;2022-12-18T12:59:31;97283.44;;;-5.52;88.17
73941;BME280;62294;48.554;10.202;2022-12-18T13:02:17;97282.28;;;-5.77;90.78
73941;BME280;62294;48.554;10.202;2022-12-18T13:07:25;97279.72;;;-5.48;90.06
73941;BME280;62294;48.554;10.202;2022-12-18T13:13:12;97293.41;;;-5.46;88.83
73941;BME280;62294;48.554;10.202;2022-12-18T13:20:46;97293.03;;;-5.68;90.21
73941;BME280;62294;48.554;10.202;2022-12-18T13:34:19;97289.56;;;-5.83;90.63
73941;BME280;62294;48.554;10.202;2022-12-18T13:36:57;97291.44;;;-5.85;90.61
73941;BME280;62294;48.554;10.202;2022-12-18T13:39:43;97290.25;;;-5.51;90.17
73941;BME280;62294;48.554;10.202;2022-12-18T13:44:58;97291.94;;;-5.22;88.64
73941;BME280;62294;48.554;10.202;2022-12-18T13:47:36;97288.44;;;-5.21;87.81
73941;BME280;62294;48.554;10.202;2022-12-18T13:50:22;97295.25;;;-5.20;87.83
73941;BME280;62294;48.554;10.202;2022-12-18T13:52:49;97291.22;;;-5.52;88.91
73941;BME280;62294;48.554;10.202;2022-12-18T13:55:18;97279.78;;;-5.92;90.57
73941;BME280;62294;48.554;10.202;2022-12-18T13:57:46;97284.03;;;-5.91;91.37
73941;BME280;62294;48.554;10.202;2022-12-18T14:02:50;97284.84;;;-6.05;91.46
73941;BME280;62294;48.554;10.202;2022-12-18T14:05:31;97286.69;;;-5.93;91.58
73941;BME280;62294;48.554;10.202;2022-12-18T14:08:10;97283.47;;;-5.82;91.39
73941;BME280;62294;48.554;10.202;2022-12-18T14:10:42;97288.03;;;-5.71;91.02
73941;BME280;62294;48.554;10.202;2022-12-18T14:13:30;97282.00;;;-5.72;90.28
73941;BME280;62294;48.554;10.202;2022-12-18T14:15:57;97273.66;;;-5.77;90.77
73941;BME280;62294;48.554;10.202;2022-12-18T14:18:44;97282.00;;;-5.72;91.36
73941;BME280;62294;48.554;10.202;2022-12-18T14:21:18;97285.47;;;-5.57;90.23
73941;BME280;62294;48.554;10.202;2022-12-18T14:23:46;97278.81;;;-5.61;90.91
73941;BME280;62294;48.554;10.202;2022-12-18T14:26:27;97282.78;;;-6.00;91.87
73941;BME280;62294;48.554;10.202;2022-12-18T14:28:57;97292.25;;;-5.99;92.50